Terminal Aerodrome Forecast
Issued by NWS Omaha/Valley, NE

Home | Current Version | Previous Version | Graphics & Text | Print | Product List | Glossary On
Versions: 1 2 3 4 5 6 7 8 9 10 11 12 13 14 15 16 17 18 19 20 21 22 23
000
FTUS43 KOAX 140328 AAB
TAFOFK
TAF AMD
KOFK 140328Z 1403/1424 15010KT P6SM OVC035
      TEMPO 1404/1406 5SM -SN OVC025
     FM140600 15009KT 4SM -SN OVC025
      TEMPO 1406/1410 1SM -SN OVC007
     FM141000 18009KT 6SM -SN OVC025
     FM141300 22009KT P6SM BKN015=

USA.gov is the U.S. government's official web portal to all federal, state and local government web resources and services.